ウシュアイア の空港の天気 - METARとTAF

ウシュアイア空港 ( SAWH / USH ) - アルゼンチン ティエラ・デル・フエゴ州、ウシュアイア
飛行場実況気象(Metar)
観測時間05/27 21:00 ART (05/28 00:00 UTC)
風向・風速西 2m/s
視程10km以上
天気現象
少しの雲 雲底高度 1220m
全天の4割程度の雲 雲底高度 3050m
気温4℃
湿度65%
気圧1008hPa
METARSAWH 280000Z 27003KT 9999 FEW040 SCT100 04/M02 Q1008
過去の天気等 Google飛行場航空写真 Wunderground天気予報

過去48時間のMETAR

飛行場予報(TAF)
発表時間: 5/27 20:00 ART (5/27 23:00 UTC)
予報対象時間: 27日21時 ART ~ 28日21時 ART
風向・風速不定 4m/s
視程10km以上
全天の8割程度の雲 雲底高度 610m
全天の8割程度の雲 雲底高度 910m
28日0時 ART ~ 28日5時 ART に 確率 30% で一時的に
天気現象しゅう雨
28日15時 ART ~ 28日17時 ART に徐々に
風向・風速西北西 8m/s
TAF SAWH 272300Z 2800/2824 VRB07KT 9999 BKN020 BKN030 TX04/2818Z TN00/2810Z
PROB30 TEMPO 2803/2808 SHRA
BECMG 2818/2820 30015KT